Albuquerque, New Mexico
Current Conditions -  °F | °C
As of 12:52 AM on Thursday 27 Nov 2014 (Local Time) from KABQ Reporting Station
Clear Clear  
Wind Chill: 32°   Ceiling: Unl
Heat Index: 37°   Visibility: 10mi
Dew Point: 22°   Wind: 6mph
Humidity: 54%   Direction: 110°ESE
Pressure: 30.43"   Gusts: NA
Location:  35.08°N, 106.64°W
Report Text: KABQ 270752Z 11005KT 10SM CLR 03/M06 A3043 RMK AO2 SLP285 T00281056
Loading
Personal Weather Stations






























Interactive Weather Map New forecast layout! Learn more

10-Day Weather Forecast

Advertisements
Track Severe Weather on mobile